createdAt,value
2023-04-10T00:00:45.761Z,10.35
2023-04-10T00:03:14.153Z,10.33
2023-04-10T00:05:42.318Z,10.32
2023-04-10T00:08:10.551Z,10.28
2023-04-10T00:10:38.814Z,10.29
2023-04-10T00:13:08.402Z,10.27
2023-04-10T00:15:36.426Z,10.26
2023-04-10T00:18:04.678Z,10.21
2023-04-10T00:20:32.860Z,10.19
2023-04-10T00:23:00.899Z,10.16
2023-04-10T00:25:29.341Z,10.15
2023-04-10T00:27:57.331Z,10.13
2023-04-10T00:30:26.742Z,10.14
2023-04-10T00:32:55.140Z,10.10
2023-04-10T00:35:23.289Z,10.08
2023-04-10T00:37:51.436Z,10.05
2023-04-10T00:40:20.096Z,10.02
2023-04-10T00:42:50.064Z,9.99
2023-04-10T00:45:20.450Z,9.97
2023-04-10T00:47:50.331Z,9.93
2023-04-10T00:50:18.785Z,9.94
2023-04-10T00:52:46.996Z,9.92
2023-04-10T00:55:15.929Z,9.92
2023-04-10T00:57:46.316Z,9.90
2023-04-10T01:00:15.445Z,9.90
2023-04-10T01:02:44.053Z,9.90
2023-04-10T01:05:14.263Z,9.89
2023-04-10T01:07:55.505Z,9.89
2023-04-10T01:10:31.690Z,9.87
2023-04-10T01:13:09.818Z,9.82
2023-04-10T01:15:45.102Z,9.79
2023-04-10T01:18:20.484Z,9.77
2023-04-10T01:20:50.135Z,9.75
2023-04-10T01:23:44.365Z,9.72
2023-04-10T01:26:14.530Z,9.70
2023-04-10T01:29:01.393Z,9.66
2023-04-10T01:31:38.541Z,9.64
2023-04-10T01:34:10.624Z,9.60
2023-04-10T01:36:46.885Z,9.54
2023-04-10T01:39:18.321Z,9.46
2023-04-10T01:41:48.996Z,9.39
2023-04-10T01:44:22.611Z,9.35
2023-04-10T01:46:51.563Z,9.31
2023-04-10T01:49:20.871Z,9.25
2023-04-10T01:51:50.354Z,9.17
2023-04-10T01:54:19.755Z,9.09
2023-04-10T01:56:48.143Z,9.05
2023-04-10T01:59:18.307Z,9.04
2023-04-10T02:01:46.960Z,9.04
2023-04-10T02:04:15.641Z,9.02
2023-04-10T02:06:52.567Z,9.02
2023-04-10T02:09:32.154Z,9.01
2023-04-10T02:12:05.767Z,8.97
2023-04-10T02:14:39.456Z,8.91
2023-04-10T02:17:09.358Z,8.88
2023-04-10T02:19:39.644Z,8.90
2023-04-10T02:22:08.722Z,8.91
2023-04-10T02:24:36.799Z,8.98
2023-04-10T02:27:05.401Z,9.01
2023-04-10T02:29:34.988Z,9.03
2023-04-10T02:32:04.945Z,9.03
2023-04-10T02:34:33.104Z,9.05
2023-04-10T02:37:01.095Z,9.10
2023-04-10T02:39:30.295Z,9.11
2023-04-10T02:41:58.601Z,9.11
2023-04-10T02:44:27.097Z,9.08
2023-04-10T02:46:56.600Z,9.07
2023-04-10T02:49:25.033Z,9.05
2023-04-10T02:51:53.025Z,9.04
2023-04-10T02:54:21.782Z,9.01
2023-04-10T02:56:50.076Z,8.98
2023-04-10T02:59:18.090Z,8.93
2023-04-10T03:01:47.984Z,8.91
2023-04-10T03:04:17.942Z,8.90
2023-04-10T03:06:46.411Z,8.85
2023-04-10T03:09:14.492Z,8.80
2023-04-10T03:11:42.999Z,8.79
2023-04-10T03:14:11.155Z,8.78
2023-04-10T03:16:39.377Z,8.79
2023-04-10T03:19:07.650Z,8.76
2023-04-10T03:21:37.054Z,8.73
2023-04-10T03:24:06.111Z,8.70
2023-04-10T03:26:34.713Z,8.72
2023-04-10T03:29:02.872Z,8.73
2023-04-10T03:31:31.247Z,8.72
2023-04-10T03:33:59.932Z,8.70
2023-04-10T03:36:28.430Z,8.71
2023-04-10T03:38:57.736Z,8.71
2023-04-10T03:41:26.425Z,8.69
2023-04-10T03:43:54.814Z,8.69
2023-04-10T03:46:23.423Z,8.70
2023-04-10T03:48:54.183Z,8.69
2023-04-10T03:51:24.512Z,8.66
2023-04-10T03:53:53.408Z,8.64
2023-04-10T03:56:23.059Z,8.68
2023-04-10T03:58:51.111Z,8.69
2023-04-10T04:01:22.168Z,8.67
2023-04-10T04:03:55.979Z,8.63
2023-04-10T04:06:25.635Z,8.58
2023-04-10T04:08:54.396Z,8.47
2023-04-10T04:11:24.332Z,8.41
2023-04-10T04:13:53.024Z,8.38
2023-04-10T04:16:24.751Z,8.34
2023-04-10T04:18:52.955Z,8.33
2023-04-10T04:21:21.191Z,8.38
2023-04-10T04:23:49.741Z,8.38
2023-04-10T04:26:25.063Z,8.39
2023-04-10T04:28:53.789Z,8.37
2023-04-10T04:31:22.118Z,8.37
2023-04-10T04:33:50.305Z,8.36
2023-04-10T04:36:21.274Z,8.38
2023-04-10T04:38:52.882Z,8.38
2023-04-10T04:41:25.651Z,8.41
2023-04-10T04:43:55.957Z,8.46
2023-04-10T04:46:24.643Z,8.48
2023-04-10T04:48:53.127Z,8.51
2023-04-10T04:51:21.521Z,8.54
2023-04-10T04:53:50.013Z,8.57
2023-04-10T04:56:22.704Z,8.58
2023-04-10T04:58:52.509Z,8.61
2023-04-10T05:01:22.264Z,8.64
2023-04-10T05:03:52.053Z,8.71
2023-04-10T05:06:21.691Z,8.76
2023-04-10T05:08:50.086Z,8.81
2023-04-10T05:11:19.841Z,8.87
2023-04-10T05:13:52.189Z,8.94
2023-04-10T05:16:23.199Z,9.01
2023-04-10T05:18:51.934Z,9.07
2023-04-10T05:21:20.312Z,9.13
2023-04-10T05:23:49.651Z,9.20
2023-04-10T05:26:18.213Z,9.27
2023-04-10T05:28:47.440Z,9.32
2023-04-10T05:31:17.071Z,9.37
2023-04-10T05:33:45.899Z,9.48
2023-04-10T05:36:14.419Z,9.60
2023-04-10T05:38:42.960Z,9.69
2023-04-10T05:41:11.983Z,9.81
2023-04-10T05:43:39.976Z,9.91
2023-04-10T05:46:08.375Z,9.99
2023-04-10T05:48:40.189Z,10.06
2023-04-10T05:51:11.340Z,10.14
2023-04-10T05:53:39.370Z,10.23
2023-04-10T05:56:12.270Z,10.31
2023-04-10T05:58:40.769Z,10.42
2023-04-10T06:01:09.026Z,10.51
2023-04-10T06:03:39.259Z,10.58
2023-04-10T06:06:08.856Z,10.70
2023-04-10T06:08:36.942Z,10.80
2023-04-10T06:11:05.469Z,10.93
2023-04-10T06:13:36.112Z,11.05
2023-04-10T06:16:04.435Z,11.14
2023-04-10T06:18:32.783Z,11.29
2023-04-10T06:21:02.715Z,11.38
2023-04-10T06:23:31.010Z,11.51
2023-04-10T06:25:59.590Z,11.68
2023-04-10T06:28:27.971Z,11.85
2023-04-10T06:30:56.360Z,12.00
2023-04-10T06:33:29.333Z,12.18
2023-04-10T06:35:58.326Z,12.35
2023-04-10T06:38:28.114Z,12.48
2023-04-10T06:40:55.990Z,12.71
2023-04-10T06:43:23.914Z,12.92
2023-04-10T06:45:52.075Z,13.08
2023-04-10T06:48:20.427Z,13.27
2023-04-10T06:50:48.412Z,13.45
2023-04-10T06:53:16.600Z,13.60
2023-04-10T06:55:45.892Z,13.81
2023-04-10T06:58:13.945Z,14.03
2023-04-10T07:00:42.308Z,14.16
2023-04-10T07:03:10.392Z,14.27
2023-04-10T07:05:40.127Z,14.41
2023-04-10T07:08:10.539Z,14.61
2023-04-10T07:10:39.531Z,14.80
2023-04-10T07:13:08.888Z,15.00
2023-04-10T07:15:37.054Z,15.24
2023-04-10T07:18:07.791Z,15.45
2023-04-10T07:20:35.844Z,15.59
2023-04-10T07:23:04.086Z,15.67
2023-04-10T07:25:32.151Z,15.94
2023-04-10T07:28:00.135Z,16.13
2023-04-10T07:30:29.939Z,16.32
2023-04-10T07:32:58.335Z,16.54
2023-04-10T07:35:27.116Z,16.69
2023-04-10T07:37:55.640Z,16.89
2023-04-10T07:40:23.626Z,17.04
2023-04-10T07:42:53.806Z,17.23
2023-04-10T07:45:22.335Z,17.36
2023-04-10T07:47:51.709Z,17.46
2023-04-10T07:50:19.902Z,17.62
2023-04-10T07:52:48.194Z,17.70
2023-04-10T07:55:16.426Z,17.88
2023-04-10T07:57:44.468Z,18.09
2023-04-10T08:00:14.295Z,18.25
2023-04-10T08:02:43.885Z,18.41
2023-04-10T08:05:13.403Z,18.61
2023-04-10T08:07:41.508Z,18.77
2023-04-10T08:10:10.744Z,19.01
2023-04-10T08:12:38.958Z,19.22
2023-04-10T08:15:08.665Z,19.36
2023-04-10T08:17:37.009Z,19.45
2023-04-10T08:20:06.583Z,19.64
2023-04-10T08:22:35.975Z,19.76
2023-04-10T08:25:04.658Z,19.80
2023-04-10T08:27:32.726Z,19.90
2023-04-10T08:30:00.840Z,19.93
2023-04-10T08:32:30.604Z,20.09
2023-04-10T08:34:58.820Z,20.28
2023-04-10T08:37:27.536Z,20.43
2023-04-10T08:39:57.298Z,20.56
2023-04-10T08:42:25.939Z,20.62
2023-04-10T08:44:55.272Z,20.74
2023-04-10T08:47:28.846Z,20.79
2023-04-10T08:49:58.734Z,20.96
2023-04-10T08:52:28.802Z,21.01
2023-04-10T08:55:00.699Z,21.21
2023-04-10T08:57:30.514Z,21.40
2023-04-10T09:00:04.278Z,21.63
2023-04-10T09:02:42.838Z,21.66
2023-04-10T09:05:13.444Z,21.76
2023-04-10T09:07:42.106Z,21.66
2023-04-10T09:10:11.763Z,21.93
2023-04-10T09:12:49.732Z,21.94
2023-04-10T09:15:18.188Z,21.96
2023-04-10T09:17:57.416Z,21.83
2023-04-10T09:20:27.829Z,21.88
2023-04-10T09:22:55.969Z,21.69
2023-04-10T09:25:33.982Z,21.79
2023-04-10T09:28:04.682Z,21.89
2023-04-10T09:30:41.099Z,21.94
2023-04-10T09:33:23.669Z,21.91
2023-04-10T09:35:51.847Z,22.21
2023-04-10T09:38:22.339Z,21.93
2023-04-10T09:40:53.639Z,21.96
2023-04-10T09:43:28.015Z,22.03
2023-04-10T09:45:57.422Z,22.28
2023-04-10T09:48:27.618Z,22.33
2023-04-10T09:50:55.652Z,22.38
2023-04-10T09:53:23.748Z,22.00
2023-04-10T09:55:53.362Z,22.08
2023-04-10T09:58:22.134Z,22.31
2023-04-10T10:00:50.577Z,22.27
2023-04-10T10:03:21.116Z,22.08
2023-04-10T10:05:53.479Z,22.31
2023-04-10T10:08:23.836Z,22.16
2023-04-10T10:10:55.903Z,22.54
2023-04-10T10:13:29.289Z,22.26
2023-04-10T10:16:07.503Z,22.50
2023-04-10T10:18:45.087Z,22.39
2023-04-10T10:21:16.607Z,22.84
2023-04-10T10:23:46.322Z,23.05
2023-04-10T10:26:16.295Z,23.11
2023-04-10T10:28:47.587Z,22.77
2023-04-10T10:31:17.598Z,23.12
2023-04-10T10:33:47.101Z,23.12
2023-04-10T10:36:17.101Z,23.35
2023-04-10T10:38:54.707Z,23.38
2023-04-10T10:41:29.837Z,23.09
2023-04-10T10:44:09.657Z,23.45
2023-04-10T10:46:43.994Z,23.48
2023-04-10T10:49:13.950Z,23.38
2023-04-10T10:51:46.709Z,23.46
2023-04-10T10:54:29.056Z,23.77
2023-04-10T10:56:58.618Z,23.66
2023-04-10T10:59:58.297Z,23.90
2023-04-10T11:02:27.244Z,23.67
2023-04-10T11:04:55.949Z,23.59
2023-04-10T11:08:02.978Z,23.63
2023-04-10T11:11:01.576Z,23.38
2023-04-10T11:13:31.055Z,23.55
2023-04-10T11:16:01.387Z,23.78
2023-04-10T11:19:13.353Z,24.22
2023-04-10T11:22:03.540Z,24.03
2023-04-10T11:24:59.574Z,24.20
2023-04-10T11:27:46.421Z,24.49
2023-04-10T11:30:42.279Z,24.31
2023-04-10T11:33:18.899Z,24.40
2023-04-10T11:35:47.416Z,24.37
2023-04-10T11:38:18.169Z,24.54
2023-04-10T11:41:02.915Z,25.01
2023-04-10T11:43:31.776Z,24.96
2023-04-10T11:46:03.095Z,25.15
2023-04-10T11:48:33.665Z,25.10
2023-04-10T11:51:09.468Z,25.07
2023-04-10T11:53:43.212Z,25.04
2023-04-10T11:56:22.608Z,24.89
2023-04-10T11:58:54.895Z,24.79
2023-04-10T12:01:24.788Z,24.75
2023-04-10T12:03:55.265Z,25.33
2023-04-10T12:06:25.952Z,25.59
2023-04-10T12:09:01.723Z,25.75
2023-04-10T12:11:35.361Z,25.47
2023-04-10T12:14:03.878Z,25.51
2023-04-10T12:16:33.726Z,25.54
2023-04-10T12:19:01.764Z,25.48
2023-04-10T12:21:31.205Z,25.29
2023-04-10T12:23:59.259Z,25.52
2023-04-10T12:26:27.343Z,25.57
2023-04-10T12:28:59.021Z,25.12
2023-04-10T12:31:31.318Z,25.00
2023-04-10T12:34:01.170Z,25.10
2023-04-10T12:36:30.561Z,25.31
2023-04-10T12:38:59.233Z,25.13
2023-04-10T12:41:29.673Z,25.04
2023-04-10T12:44:10.874Z,25.12
2023-04-10T12:46:41.752Z,25.14
2023-04-10T12:49:12.095Z,25.20
2023-04-10T12:51:47.136Z,25.21
2023-04-10T12:54:32.154Z,25.07
2023-04-10T12:57:01.506Z,24.85
2023-04-10T12:59:31.907Z,25.07
2023-04-10T13:02:00.135Z,25.21
2023-04-10T13:04:31.308Z,25.28
2023-04-10T13:07:02.808Z,25.30
2023-04-10T13:09:31.224Z,25.47
2023-04-10T13:11:59.305Z,25.13
2023-04-10T13:14:27.508Z,25.03
2023-04-10T13:16:57.090Z,25.08
2023-04-10T13:19:25.078Z,25.24
2023-04-10T13:21:53.054Z,25.42
2023-04-10T13:24:21.345Z,25.45
2023-04-10T13:26:49.235Z,25.41
2023-04-10T13:29:17.226Z,25.35
2023-04-10T13:31:45.601Z,25.44
2023-04-10T13:34:14.911Z,25.70
2023-04-10T13:36:43.099Z,25.77
2023-04-10T13:39:11.472Z,25.88
2023-04-10T13:41:39.501Z,25.85
2023-04-10T13:44:09.177Z,26.07
2023-04-10T13:46:37.522Z,25.72
2023-04-10T13:49:05.510Z,25.91
2023-04-10T13:51:34.779Z,25.96
2023-04-10T13:54:04.698Z,25.99
2023-04-10T13:56:32.582Z,25.51
2023-04-10T13:59:00.574Z,25.50
2023-04-10T14:01:28.768Z,25.42
2023-04-10T14:03:57.283Z,25.12
2023-04-10T14:06:25.356Z,24.76
2023-04-10T14:08:54.855Z,24.63
2023-04-10T14:11:23.247Z,24.39
2023-04-10T14:13:51.273Z,24.62
2023-04-10T14:16:19.389Z,24.62
2023-04-10T14:18:47.882Z,24.54
2023-04-10T14:21:15.765Z,24.48
2023-04-10T14:23:46.711Z,24.46
2023-04-10T14:26:16.321Z,24.48
2023-04-10T14:28:44.236Z,24.40
2023-04-10T14:31:12.507Z,24.45
2023-04-10T14:33:40.780Z,24.58
2023-04-10T14:36:09.449Z,24.47
2023-04-10T14:38:37.729Z,24.57
2023-04-10T14:41:06.385Z,24.58
2023-04-10T14:43:35.726Z,24.45
2023-04-10T14:46:03.654Z,24.45
2023-04-10T14:48:32.034Z,24.61
2023-04-10T14:51:01.328Z,24.64
2023-04-10T14:53:29.334Z,24.65
2023-04-10T14:55:57.741Z,24.88
2023-04-10T14:58:25.972Z,25.05
2023-04-10T15:00:55.404Z,24.90
2023-04-10T15:03:25.328Z,25.18
2023-04-10T15:06:00.227Z,24.99
2023-04-10T15:08:28.516Z,25.08
2023-04-10T15:10:56.503Z,25.36
2023-04-10T15:13:24.698Z,25.50
2023-04-10T15:15:52.959Z,25.26
2023-04-10T15:18:22.297Z,25.14
2023-04-10T15:20:52.508Z,25.10
2023-04-10T15:23:20.728Z,25.05
2023-04-10T15:25:48.784Z,25.19
2023-04-10T15:28:16.825Z,24.81
2023-04-10T15:30:45.694Z,24.93
2023-04-10T15:33:13.668Z,24.88
2023-04-10T15:35:42.942Z,25.16
2023-04-10T15:38:12.822Z,25.93
2023-04-10T15:40:40.782Z,26.22
2023-04-10T15:43:08.767Z,26.48
2023-04-10T15:45:37.366Z,26.43
2023-04-10T15:48:06.060Z,26.45
2023-04-10T15:50:35.082Z,25.87
2023-04-10T15:53:04.821Z,25.59
2023-04-10T15:55:33.048Z,25.19
2023-04-10T15:58:02.562Z,25.24
2023-04-10T16:00:31.077Z,24.93
2023-04-10T16:02:59.575Z,24.73
2023-04-10T16:05:27.913Z,24.52
2023-04-10T16:07:56.143Z,24.21
2023-04-10T16:10:25.676Z,24.32
2023-04-10T16:12:53.862Z,24.40
2023-04-10T16:15:21.846Z,24.32
2023-04-10T16:17:50.158Z,23.99
2023-04-10T16:20:18.976Z,24.16
2023-04-10T16:22:47.086Z,24.09
2023-04-10T16:25:16.933Z,23.95
2023-04-10T16:27:47.257Z,23.89
2023-04-10T16:30:15.761Z,23.89
2023-04-10T16:32:43.776Z,23.94
2023-04-10T16:35:11.866Z,23.91
2023-04-10T16:37:40.362Z,23.87
2023-04-10T16:40:09.316Z,23.70
2023-04-10T16:42:37.414Z,23.59
2023-04-10T16:45:08.400Z,23.35
2023-04-10T16:47:36.587Z,23.19
2023-04-10T16:50:04.924Z,23.05
2023-04-10T16:52:33.275Z,22.82
2023-04-10T16:55:01.509Z,22.63
2023-04-10T16:57:32.060Z,22.49
2023-04-10T17:00:00.501Z,22.33
2023-04-10T17:02:30.398Z,22.13
2023-04-10T17:04:58.580Z,21.98
2023-04-10T17:07:26.851Z,21.83
2023-04-10T17:09:54.820Z,21.72
2023-04-10T17:12:22.843Z,21.60
2023-04-10T17:14:52.390Z,21.47
2023-04-10T17:17:20.533Z,21.31
2023-04-10T17:19:50.325Z,21.21
2023-04-10T17:22:20.571Z,21.17
2023-04-10T17:24:48.545Z,21.03
2023-04-10T17:27:18.893Z,20.94
2023-04-10T17:29:47.165Z,20.82
2023-04-10T17:32:15.077Z,20.65
2023-04-10T17:34:43.012Z,20.55
2023-04-10T17:37:12.600Z,20.46
2023-04-10T17:39:40.513Z,20.29
2023-04-10T17:42:08.506Z,20.12
2023-04-10T17:44:36.705Z,20.02
2023-04-10T17:47:05.193Z,19.93
2023-04-10T17:49:33.174Z,19.84
2023-04-10T17:52:01.377Z,19.73
2023-04-10T17:54:30.682Z,19.63
2023-04-10T17:56:58.676Z,19.53
2023-04-10T17:59:26.855Z,19.42
2023-04-10T18:01:55.014Z,19.33
2023-04-10T18:04:23.335Z,19.27
2023-04-10T18:06:51.300Z,19.20
2023-04-10T18:09:19.460Z,19.08
2023-04-10T18:11:50.741Z,19.01
2023-04-10T18:14:18.655Z,18.95
2023-04-10T18:16:46.703Z,18.87
2023-04-10T18:19:14.977Z,18.82
2023-04-10T18:21:42.990Z,18.76
2023-04-10T18:24:12.137Z,18.69
2023-04-10T18:26:40.631Z,18.63
2023-04-10T18:29:09.955Z,18.61
2023-04-10T18:31:37.912Z,18.62
2023-04-10T18:34:08.389Z,18.60
2023-04-10T18:36:36.896Z,18.56
2023-04-10T18:39:05.305Z,18.49
2023-04-10T18:41:36.988Z,18.48
2023-04-10T18:44:05.985Z,18.41
2023-04-10T18:46:35.895Z,18.38
2023-04-10T18:49:04.135Z,18.32
2023-04-10T18:51:34.625Z,18.26
2023-04-10T18:54:03.620Z,18.21
2023-04-10T18:56:31.744Z,18.20
2023-04-10T18:59:00.025Z,18.22
2023-04-10T19:01:28.983Z,18.18
2023-04-10T19:03:58.907Z,18.13
2023-04-10T19:06:27.888Z,18.04
2023-04-10T19:08:56.732Z,17.95
2023-04-10T19:11:24.874Z,17.93
2023-04-10T19:13:53.258Z,18.07
2023-04-10T19:16:21.738Z,18.06
2023-04-10T19:18:50.209Z,17.94
2023-04-10T19:21:19.612Z,17.94
2023-04-10T19:23:47.928Z,17.92
2023-04-10T19:26:16.015Z,17.91
2023-04-10T19:28:43.977Z,17.94
2023-04-10T19:31:12.974Z,17.87
2023-04-10T19:33:41.309Z,17.96
2023-04-10T19:36:09.776Z,17.91
2023-04-10T19:38:40.961Z,17.87
2023-04-10T19:41:15.790Z,17.76
2023-04-10T19:43:44.108Z,17.72
2023-04-10T19:46:19.221Z,17.76
2023-04-10T19:48:48.021Z,17.70
2023-04-10T19:51:16.092Z,17.70
2023-04-10T19:53:45.510Z,17.68
2023-04-10T19:56:13.692Z,17.61
2023-04-10T19:58:42.895Z,17.62
2023-04-10T20:01:12.334Z,17.56
2023-04-10T20:03:40.914Z,17.56
2023-04-10T20:06:10.165Z,17.53
2023-04-10T20:08:38.263Z,17.49
2023-04-10T20:11:09.450Z,17.55
2023-04-10T20:13:38.572Z,17.49
2023-04-10T20:16:07.866Z,17.49
2023-04-10T20:18:37.794Z,17.46
2023-04-10T20:21:07.848Z,17.36
2023-04-10T20:23:36.214Z,17.40
2023-04-10T20:26:04.171Z,17.34
2023-04-10T20:28:33.439Z,17.37
2023-04-10T20:31:01.728Z,17.33
2023-04-10T20:33:29.821Z,17.28
2023-04-10T20:35:57.838Z,17.29
2023-04-10T20:38:26.051Z,17.24
2023-04-10T20:40:54.244Z,17.31
2023-04-10T20:43:22.227Z,17.27
2023-04-10T20:45:51.750Z,17.16
2023-04-10T20:48:19.731Z,17.23
2023-04-10T20:50:49.233Z,17.15
2023-04-10T20:53:17.522Z,17.19
2023-04-10T20:55:47.571Z,17.12
2023-04-10T20:58:15.478Z,17.12
2023-04-10T21:00:43.670Z,17.15
2023-04-10T21:03:13.101Z,17.15
2023-04-10T21:05:42.040Z,17.14
2023-04-10T21:08:10.865Z,17.12
2023-04-10T21:10:43.942Z,17.07
2023-04-10T21:13:14.081Z,17.14
2023-04-10T21:15:42.265Z,17.11
2023-04-10T21:18:11.572Z,17.05
2023-04-10T21:20:44.691Z,17.10
2023-04-10T21:23:12.743Z,16.93
2023-04-10T21:25:41.040Z,16.99
2023-04-10T21:28:09.038Z,16.99
2023-04-10T21:30:36.924Z,16.93
2023-04-10T21:33:05.342Z,16.90
2023-04-10T21:35:33.442Z,16.84
2023-04-10T21:38:02.866Z,16.95
2023-04-10T21:40:34.368Z,16.81
2023-04-10T21:43:02.749Z,16.86
2023-04-10T21:45:32.159Z,16.79
2023-04-10T21:48:00.776Z,16.72
2023-04-10T21:50:28.812Z,16.75
2023-04-10T21:52:56.840Z,16.75
2023-04-10T21:55:26.527Z,16.78
2023-04-10T21:57:54.468Z,16.78
2023-04-10T22:00:23.193Z,16.75
2023-04-10T22:02:53.006Z,16.81
2023-04-10T22:05:24.721Z,16.79
2023-04-10T22:07:53.175Z,16.75
2023-04-10T22:10:21.205Z,16.71
2023-04-10T22:12:50.621Z,16.70
2023-04-10T22:15:19.815Z,16.66
2023-04-10T22:17:47.832Z,16.79
2023-04-10T22:20:15.891Z,16.82
2023-04-10T22:22:44.175Z,16.73
2023-04-10T22:25:12.085Z,16.63
2023-04-10T22:27:40.080Z,16.73
2023-04-10T22:30:10.921Z,16.82
2023-04-10T22:32:38.919Z,16.79
2023-04-10T22:35:08.291Z,16.75
2023-04-10T22:37:36.553Z,16.78
2023-04-10T22:40:05.911Z,16.76
2023-04-10T22:42:33.865Z,16.73
2023-04-10T22:45:02.153Z,16.55
2023-04-10T22:47:33.829Z,16.59
2023-04-10T22:50:02.143Z,16.64
2023-04-10T22:52:30.112Z,16.66
2023-04-10T22:54:58.292Z,16.74
2023-04-10T22:57:26.575Z,16.74
2023-04-10T22:59:54.731Z,16.71
2023-04-10T23:02:22.701Z,16.63
2023-04-10T23:04:52.274Z,16.56
2023-04-10T23:07:20.245Z,16.70
2023-04-10T23:09:48.140Z,16.62
2023-04-10T23:12:16.336Z,16.64
2023-04-10T23:14:44.278Z,16.69
2023-04-10T23:17:12.196Z,16.69
2023-04-10T23:19:40.458Z,16.71
2023-04-10T23:22:09.752Z,16.57
2023-04-10T23:24:38.690Z,16.60
2023-04-10T23:27:07.828Z,16.60
2023-04-10T23:29:35.860Z,16.72
2023-04-10T23:32:03.857Z,16.64
2023-04-10T23:34:32.066Z,16.72
2023-04-10T23:37:00.027Z,16.64
2023-04-10T23:39:29.315Z,16.62
2023-04-10T23:41:57.751Z,16.48
2023-04-10T23:44:25.823Z,16.55
2023-04-10T23:46:53.826Z,16.53
2023-04-10T23:49:22.090Z,16.47
2023-04-10T23:51:50.057Z,16.61
2023-04-10T23:54:18.030Z,16.52
2023-04-10T23:56:47.645Z,16.61
2023-04-10T23:59:17.014Z,16.62
